createdAt,value
2023-03-19T00:00:36.950Z,7.88
2023-03-19T00:05:39.142Z,7.93
2023-03-19T00:10:42.700Z,7.10
2023-03-19T00:15:44.831Z,8.15
2023-03-19T00:20:46.951Z,8.98
2023-03-19T00:25:50.909Z,8.55
2023-03-19T00:30:53.067Z,8.60
2023-03-19T00:35:55.261Z,8.85
2023-03-19T00:40:58.782Z,9.60
2023-03-19T00:46:01.725Z,9.40
2023-03-19T00:51:04.840Z,8.27
2023-03-19T00:56:09.129Z,7.97
2023-03-19T01:01:14.266Z,8.52
2023-03-19T01:06:16.520Z,7.60
2023-03-19T01:11:20.059Z,8.27
2023-03-19T01:16:22.103Z,7.18
2023-03-19T01:21:24.248Z,7.57
2023-03-19T01:26:27.924Z,7.03
2023-03-19T01:31:30.262Z,7.72
2023-03-19T01:36:32.791Z,7.53
2023-03-19T01:41:36.360Z,7.32
2023-03-19T01:46:39.729Z,7.40
2023-03-19T01:51:45.548Z,7.65
2023-03-19T01:56:53.038Z,7.28
2023-03-19T02:01:59.370Z,7.15
2023-03-19T02:07:03.917Z,7.57
2023-03-19T02:12:09.161Z,8.23
2023-03-19T02:17:11.613Z,7.30
2023-03-19T02:22:15.097Z,7.68
2023-03-19T02:27:18.691Z,7.10
2023-03-19T02:32:20.798Z,7.20
2023-03-19T02:37:26.644Z,7.47
2023-03-19T02:42:30.361Z,7.43
2023-03-19T02:47:32.527Z,6.85
2023-03-19T02:52:35.088Z,7.82
2023-03-19T02:57:38.869Z,7.22
2023-03-19T03:02:41.067Z,7.35
2023-03-19T03:07:43.253Z,7.15
2023-03-19T03:12:46.828Z,7.85
2023-03-19T03:17:48.877Z,8.25
2023-03-19T03:22:51.021Z,7.53
2023-03-19T03:27:54.584Z,8.05
2023-03-19T03:32:56.793Z,8.10
2023-03-19T03:37:58.934Z,8.10
2023-03-19T03:43:02.694Z,8.30
2023-03-19T03:48:05.197Z,7.70
2023-03-19T03:53:07.786Z,7.90
2023-03-19T03:58:11.267Z,8.63
2023-03-19T04:03:13.670Z,8.27
2023-03-19T04:08:15.841Z,8.70
2023-03-19T04:13:19.383Z,8.10
2023-03-19T04:18:21.542Z,9.02
2023-03-19T04:23:23.798Z,9.13
2023-03-19T04:28:27.469Z,8.20
2023-03-19T04:33:30.446Z,9.70
2023-03-19T04:38:32.552Z,9.32
2023-03-19T04:43:36.157Z,8.73
2023-03-19T04:48:38.292Z,8.40
2023-03-19T04:53:40.675Z,8.43
2023-03-19T04:58:44.532Z,8.65
2023-03-19T05:03:46.746Z,9.60
2023-03-19T05:08:48.912Z,9.02
2023-03-19T05:13:52.522Z,9.27
2023-03-19T05:18:54.576Z,10.45
2023-03-19T05:23:56.695Z,9.55
2023-03-19T05:29:00.264Z,10.02
2023-03-19T05:34:02.558Z,9.43
2023-03-19T05:39:04.850Z,9.43
2023-03-19T05:44:08.408Z,9.48
2023-03-19T05:49:10.565Z,9.35
2023-03-19T05:54:12.745Z,9.73
2023-03-19T05:59:16.380Z,8.98
2023-03-19T06:04:18.621Z,9.40
2023-03-19T06:09:21.067Z,8.80
2023-03-19T06:14:25.054Z,9.27
2023-03-19T06:19:27.223Z,9.77
2023-03-19T06:24:29.311Z,9.05
2023-03-19T06:29:32.908Z,8.50
2023-03-19T06:34:35.055Z,8.65
2023-03-19T06:39:37.684Z,8.20
2023-03-19T06:44:41.346Z,8.02
2023-03-19T06:49:43.515Z,7.80
2023-03-19T06:54:45.585Z,7.47
2023-03-19T06:59:49.094Z,6.78
2023-03-19T07:04:51.180Z,7.28
2023-03-19T07:09:53.416Z,7.18
2023-03-19T07:14:56.995Z,7.53
2023-03-19T07:19:59.177Z,6.85
2023-03-19T07:25:01.354Z,6.75
2023-03-19T07:30:05.548Z,6.40
2023-03-19T07:35:08.884Z,6.68
2023-03-19T07:40:11.908Z,6.35
2023-03-19T07:45:15.545Z,6.13
2023-03-19T07:50:17.987Z,6.13
2023-03-19T07:55:20.182Z,6.53
2023-03-19T08:00:24.113Z,5.93
2023-03-19T08:05:26.302Z,5.80
2023-03-19T08:10:28.519Z,6.03
2023-03-19T08:15:32.148Z,5.75
2023-03-19T08:20:34.479Z,5.38
2023-03-19T08:25:36.898Z,6.55
2023-03-19T08:30:40.515Z,6.20
2023-03-19T08:35:42.924Z,5.40
2023-03-19T08:40:45.137Z,5.55
2023-03-19T08:45:49.553Z,5.47
2023-03-19T08:50:54.061Z,5.78
2023-03-19T08:55:57.827Z,5.75
2023-03-19T09:01:05.597Z,4.93
2023-03-19T09:06:10.141Z,5.10
2023-03-19T09:11:13.292Z,5.18
2023-03-19T09:16:19.355Z,5.43
2023-03-19T09:21:22.617Z,5.85
2023-03-19T09:26:24.890Z,5.35
2023-03-19T09:31:29.750Z,7.20
2023-03-19T09:36:32.575Z,6.30
2023-03-19T09:41:45.781Z,6.22
2023-03-19T09:46:53.700Z,5.35
2023-03-19T09:51:58.893Z,6.32
2023-03-19T09:57:01.920Z,5.63
2023-03-19T10:02:32.071Z,5.70
2023-03-19T10:07:58.000Z,4.88
2023-03-19T10:13:13.036Z,5.28
2023-03-19T10:18:21.009Z,5.32
2023-03-19T10:23:40.093Z,5.78
2023-03-19T10:28:44.374Z,5.40
2023-03-19T10:33:54.784Z,5.50
2023-03-19T10:38:56.887Z,5.63
2023-03-19T10:44:02.438Z,5.38
2023-03-19T10:49:11.291Z,5.20
2023-03-19T10:54:22.365Z,5.05
2023-03-19T10:59:26.969Z,5.10
2023-03-19T11:04:30.540Z,4.72
2023-03-19T11:09:37.114Z,4.50
2023-03-19T11:14:44.183Z,4.43
2023-03-19T11:20:05.893Z,4.07
2023-03-19T11:25:17.125Z,3.42
2023-03-19T11:30:22.994Z,4.00
2023-03-19T11:35:32.039Z,3.45
2023-03-19T11:40:43.688Z,4.03
2023-03-19T11:45:56.010Z,3.15
2023-03-19T11:51:08.212Z,3.70
2023-03-19T11:56:45.449Z,3.75
2023-03-19T12:02:15.142Z,3.60
2023-03-19T12:07:26.243Z,4.50
2023-03-19T12:12:36.664Z,4.00
2023-03-19T12:17:53.526Z,3.83
2023-03-19T12:23:05.863Z,3.35
2023-03-19T12:28:16.834Z,3.88
2023-03-19T12:33:33.833Z,3.33
2023-03-19T12:43:54.220Z,3.30
2023-03-19T12:49:01.012Z,3.63
2023-03-19T12:54:10.366Z,3.75
2023-03-19T12:59:20.589Z,3.45
2023-03-19T13:04:27.425Z,7.45
2023-03-19T13:09:37.068Z,5.00
2023-03-19T13:14:49.533Z,3.20
2023-03-19T13:19:53.053Z,3.20
2023-03-19T13:24:59.115Z,2.83
2023-03-19T13:30:08.568Z,2.97
2023-03-19T13:35:36.137Z,2.65
2023-03-19T13:40:49.223Z,3.20
2023-03-19T13:46:03.496Z,3.28
2023-03-19T13:51:22.657Z,3.30
2023-03-19T13:56:30.349Z,3.42
2023-03-19T14:01:41.299Z,3.45
2023-03-19T14:06:47.337Z,3.17
2023-03-19T14:11:50.936Z,3.05
2023-03-19T14:16:54.969Z,2.65
2023-03-19T14:22:10.911Z,3.17
2023-03-19T14:27:20.753Z,3.05
2023-03-19T14:32:31.992Z,2.97
2023-03-19T14:37:46.357Z,2.65
2023-03-19T14:43:00.987Z,2.55
2023-03-19T14:48:29.228Z,2.45
2023-03-19T14:53:39.202Z,2.70
2023-03-19T14:58:54.378Z,2.85
2023-03-19T15:04:00.049Z,2.85
2023-03-19T15:09:02.706Z,3.20
2023-03-19T15:14:24.679Z,2.33
2023-03-19T15:19:29.877Z,2.90
2023-03-19T15:24:32.042Z,2.70
2023-03-19T15:29:37.844Z,3.00
2023-03-19T15:34:40.668Z,2.97
2023-03-19T15:39:48.053Z,2.90
2023-03-19T15:49:59.621Z,4.95
2023-03-19T15:55:03.486Z,7.70
2023-03-19T16:00:10.222Z,7.55
2023-03-19T16:05:24.557Z,7.05
2023-03-19T16:10:36.960Z,6.80
2023-03-19T16:15:44.962Z,7.43
2023-03-19T16:20:57.486Z,6.85
2023-03-19T16:26:12.070Z,7.93
2023-03-19T16:31:24.765Z,7.40
2023-03-19T16:36:31.023Z,7.78
2023-03-19T16:41:33.904Z,7.88
2023-03-19T16:46:40.493Z,7.93
2023-03-19T16:51:42.712Z,8.27
2023-03-19T16:56:44.915Z,8.68
2023-03-19T17:01:48.478Z,7.80
2023-03-19T17:06:50.847Z,8.13
2023-03-19T17:11:53.610Z,9.95
2023-03-19T17:16:57.418Z,9.05
2023-03-19T17:21:59.812Z,8.82
2023-03-19T17:27:03.658Z,10.55
2023-03-19T17:32:16.528Z,10.55
2023-03-19T17:37:18.678Z,8.57
2023-03-19T17:42:22.972Z,8.95
2023-03-19T17:47:26.581Z,7.90
2023-03-19T17:52:29.587Z,7.35
2023-03-19T17:57:31.688Z,7.38
2023-03-19T18:02:35.557Z,7.50
2023-03-19T18:07:37.640Z,7.75
2023-03-19T18:12:39.735Z,7.22
2023-03-19T18:17:48.132Z,7.75
2023-03-19T18:22:50.797Z,7.70
2023-03-19T18:27:53.276Z,7.82
2023-03-19T18:32:59.563Z,8.02
2023-03-19T18:38:01.787Z,9.38
2023-03-19T18:43:04.189Z,9.32
2023-03-19T18:48:23.994Z,9.00
2023-03-19T18:53:26.264Z,9.10
2023-03-19T18:58:29.224Z,9.93
2023-03-19T19:03:34.065Z,8.60
2023-03-19T19:08:36.284Z,9.88
2023-03-19T19:13:53.410Z,9.75
2023-03-19T19:18:59.174Z,9.40
2023-03-19T19:24:01.277Z,10.30
2023-03-19T19:29:04.576Z,9.60
2023-03-19T19:34:10.832Z,9.85
2023-03-19T19:39:13.780Z,9.57
2023-03-19T19:44:19.130Z,9.75
2023-03-19T19:49:22.920Z,9.80
2023-03-19T19:54:25.135Z,10.75
2023-03-19T19:59:27.344Z,10.70
2023-03-19T20:04:30.884Z,11.25
2023-03-19T20:09:34.214Z,10.90
2023-03-19T20:14:45.282Z,9.57
2023-03-19T20:19:51.439Z,10.88
2023-03-19T20:24:53.962Z,10.98
2023-03-19T20:29:56.312Z,10.63
2023-03-19T20:35:00.560Z,10.30
2023-03-19T20:40:02.713Z,10.63
2023-03-19T20:45:05.963Z,10.45
2023-03-19T20:50:17.118Z,8.95
2023-03-19T20:55:21.194Z,8.18
2023-03-19T21:00:26.294Z,8.00
2023-03-19T21:05:35.232Z,8.27
2023-03-19T21:10:39.845Z,8.00
2023-03-19T21:15:42.795Z,8.52
2023-03-19T21:20:49.934Z,7.68
2023-03-19T21:25:52.713Z,7.95
2023-03-19T21:30:54.850Z,7.15
2023-03-19T21:35:59.646Z,6.38
2023-03-19T21:41:05.160Z,6.10
2023-03-19T21:46:23.291Z,6.18
2023-03-19T21:51:28.828Z,6.38
2023-03-19T21:56:34.690Z,5.65
2023-03-19T22:01:36.787Z,4.68
2023-03-19T22:06:40.377Z,4.07
2023-03-19T22:11:43.711Z,4.60
2023-03-19T22:16:46.582Z,4.05
2023-03-19T22:21:50.235Z,3.60
2023-03-19T22:26:57.504Z,3.53
2023-03-19T22:37:22.163Z,4.28
2023-03-19T22:42:25.818Z,4.18
2023-03-19T22:47:28.018Z,4.00
2023-03-19T22:52:31.503Z,3.97
2023-03-19T22:57:33.585Z,4.20
2023-03-19T23:02:35.667Z,4.32
2023-03-19T23:07:39.203Z,5.03
2023-03-19T23:12:41.285Z,4.38
2023-03-19T23:17:44.565Z,4.25
2023-03-19T23:22:48.621Z,4.47
2023-03-19T23:27:51.133Z,4.78
2023-03-19T23:32:53.362Z,4.30
2023-03-19T23:37:57.367Z,3.80
2023-03-19T23:43:00.686Z,3.17
2023-03-19T23:48:05.711Z,2.90
2023-03-19T23:53:18.043Z,2.35
2023-03-19T23:58:20.676Z,2.17
